Time,TemperatureF,DewpointF,PressureIn,WindDirection,WindDirectionDegrees,WindSpeedMPH,WindSpeedGustMPH,Humidity,HourlyPrecipIn,Conditions,Clouds,dailyrainin,SoftwareType,DateUTC
2013-11-07 00:23:00,61.0,57.0,30.12,SSE,158,1.0,5.0,87,0.00,,,0.02,,2013-11-07 05:23:00,
2013-11-07 00:44:00,60.0,57.0,30.12,SSE,156,1.0,6.0,90,0.00,,,0.02,,2013-11-07 05:44:00,
2013-11-07 00:54:00,59.0,56.0,30.11,SE,145,3.0,8.0,91,0.01,,,0.03,,2013-11-07 05:54:00,
2013-11-07 01:23:00,58.0,56.0,30.11,SE,136,2.0,6.0,93,0.03,,,0.05,,2013-11-07 06:23:00,
2013-11-07 01:52:00,59.0,57.0,30.11,SE,136,3.0,6.0,93,0.11,,,0.14,,2013-11-07 06:52:00,
2013-11-07 02:22:00,58.0,56.0,30.10,SE,140,0.0,3.0,93,0.18,,,0.23,,2013-11-07 07:22:00,
2013-11-07 02:42:00,58.0,56.0,30.10,SE,137,0.0,4.0,93,0.17,,,0.25,,2013-11-07 07:42:00,
2013-11-07 02:52:00,58.0,56.0,30.10,SE,138,0.0,2.0,93,0.13,,,0.27,,2013-11-07 07:52:00,
2013-11-07 03:22:00,58.0,56.0,30.08,SE,137,0.0,1.0,93,0.05,,,0.28,,2013-11-07 08:22:00,
2013-11-07 03:42:00,57.0,55.0,30.07,SE,138,0.0,0.0,93,0.04,,,0.29,,2013-11-07 08:42:00,
2013-11-07 03:52:00,57.0,55.0,30.08,SE,137,0.0,0.0,93,0.02,,,0.29,,2013-11-07 08:52:00,
2013-11-07 04:22:00,57.0,55.0,30.07,SE,137,0.0,1.0,93,0.02,,,0.30,,2013-11-07 09:22:00,
2013-11-07 04:42:00,57.0,55.0,30.08,SE,138,0.0,0.0,93,0.02,,,0.31,,2013-11-07 09:42:00,
2013-11-07 04:53:00,57.0,55.0,30.07,SE,138,0.0,1.0,93,0.04,,,0.33,,2013-11-07 09:53:00,
2013-11-07 05:23:00,57.0,55.0,30.07,SE,138,0.0,1.0,94,0.04,,,0.34,,2013-11-07 10:23:00,
2013-11-07 05:42:00,56.0,54.0,30.09,WNW,295,8.0,12.0,94,0.05,,,0.36,,2013-11-07 10:42:00,
2013-11-07 05:52:00,53.0,51.0,30.08,NW,317,9.0,12.0,92,0.03,,,0.36,,2013-11-07 10:52:00,
2013-11-07 06:22:00,50.0,48.0,30.09,NW,312,12.0,16.0,92,0.03,,,0.37,,2013-11-07 11:22:00,
2013-11-07 06:43:00,50.0,48.0,30.10,NW,311,10.0,16.0,93,0.01,,,0.37,,2013-11-07 11:43:00,
2013-11-07 06:52:00,50.0,48.0,30.10,NW,312,10.0,14.0,92,0.01,,,0.37,,2013-11-07 11:52:00,
2013-11-07 07:22:00,48.0,46.0,30.12,WNW,299,5.0,12.0,92,0.00,,,0.37,,2013-11-07 12:22:00,
2013-11-07 07:52:00,47.0,45.0,30.14,WNW,295,5.0,9.0,92,0.00,,,0.36,,2013-11-07 12:52:00,
2013-11-07 08:12:00,45.0,43.0,30.14,NW,319,4.0,9.0,92,0.00,,,0.36,,2013-11-07 13:12:00,
2013-11-07 08:21:00,45.0,43.0,30.15,NW,318,4.0,9.0,92,0.00,,,0.36,,2013-11-07 13:21:00,
2013-11-07 08:42:00,45.0,43.0,30.17,WNW,297,2.0,8.0,92,0.00,,,0.35,,2013-11-07 13:42:00,
2013-11-07 08:52:00,44.0,42.0,30.16,NW,322,3.0,10.0,91,0.00,,,0.35,,2013-11-07 13:52:00,
2013-11-07 09:22:00,44.0,42.0,30.18,NW,319,2.0,6.0,92,0.00,,,0.35,,2013-11-07 14:22:00,
2013-11-07 09:42:00,43.0,41.0,30.19,WNW,290,2.0,10.0,92,0.00,,,0.35,,2013-11-07 14:42:00,
2013-11-07 09:52:00,43.0,41.0,30.20,WNW,283,4.0,7.0,92,0.00,,,0.35,,2013-11-07 14:52:00,
2013-11-07 10:22:00,43.0,40.0,30.21,NNW,341,1.0,15.0,90,0.00,,,0.35,,2013-11-07 15:22:00,
2013-11-07 10:43:00,42.0,39.0,30.23,NNW,333,3.0,13.0,90,0.00,,,0.35,,2013-11-07 15:43:00,
2013-11-07 10:53:00,42.0,39.0,30.23,North,355,4.0,13.0,88,0.00,,,0.35,,2013-11-07 15:53:00,
2013-11-07 11:23:00,43.0,39.0,30.23,NW,323,4.0,11.0,85,0.00,,,0.35,,2013-11-07 16:23:00,
2013-11-07 11:42:00,43.0,38.0,30.24,NNW,327,3.0,12.0,82,0.00,,,0.35,,2013-11-07 16:42:00,
2013-11-07 11:52:00,43.0,37.0,30.24,NNW,338,7.0,12.0,80,0.00,,,0.35,,2013-11-07 16:52:00,
2013-11-07 12:22:00,43.0,37.0,30.24,NNW,348,4.0,11.0,80,0.00,,,0.35,,2013-11-07 17:22:00,
2013-11-07 12:43:00,44.0,37.0,30.23,North,5,4.0,11.0,76,0.00,,,0.35,,2013-11-07 17:43:00,
2013-11-07 12:52:00,45.0,39.0,30.23,NNE,21,3.0,7.0,78,0.00,,,0.35,,2013-11-07 17:52:00,
2013-11-07 13:12:00,46.0,37.0,30.22,NNW,339,6.0,11.0,72,0.00,,,0.35,,2013-11-07 18:12:00,
2013-11-07 13:23:00,46.0,36.0,30.22,North,355,7.0,14.0,69,0.00,,,0.35,,2013-11-07 18:23:00,
2013-11-07 13:42:00,48.0,38.0,30.20,NE,42,2.0,10.0,68,0.00,,,0.35,,2013-11-07 18:42:00,
2013-11-07 13:52:00,48.0,37.0,30.21,NNW,339,3.0,9.0,65,0.00,,,0.35,,2013-11-07 18:52:00,
2013-11-07 14:22:00,50.0,36.0,30.20,WNW,298,0.0,6.0,58,0.00,,,0.35,,2013-11-07 19:22:00,
2013-11-07 14:42:00,50.0,35.0,30.20,North,360,4.0,19.0,56,0.00,,,0.35,,2013-11-07 19:42:00,
2013-11-07 14:52:00,51.0,36.0,30.20,NNW,344,2.0,10.0,57,0.00,,,0.35,,2013-11-07 19:52:00,
2013-11-07 15:22:00,51.0,34.0,30.19,NNW,348,4.0,12.0,52,0.00,,,0.35,,2013-11-07 20:22:00,
2013-11-07 15:42:00,51.0,35.0,30.19,NNE,23,2.0,13.0,54,0.00,,,0.35,,2013-11-07 20:42:00,
2013-11-07 15:52:00,51.0,34.0,30.19,WNW,303,4.0,7.0,53,0.00,,,0.35,,2013-11-07 20:52:00,
2013-11-07 16:22:00,50.0,34.0,30.20,WNW,297,4.0,13.0,54,0.00,,,0.35,,2013-11-07 21:22:00,
2013-11-07 16:53:00,49.0,34.0,30.20,WNW,302,2.0,8.0,56,0.00,,,0.35,,2013-11-07 21:53:00,
2013-11-07 17:24:00,48.0,32.0,30.20,NW,314,7.0,13.0,54,0.00,,,0.35,,2013-11-07 22:24:00,
2013-11-07 17:43:00,47.0,32.0,30.21,NW,318,6.0,10.0,56,0.00,,,0.35,,2013-11-07 22:43:00,
2013-11-07 17:53:00,47.0,33.0,30.21,NW,319,5.0,14.0,57,0.00,,,0.35,,2013-11-07 22:53:00,
2013-11-07 18:22:00,45.0,32.0,30.22,NW,304,4.0,8.0,61,0.00,,,0.35,,2013-11-07 23:22:00,
2013-11-07 18:43:00,45.0,33.0,30.22,NW,306,5.0,10.0,62,0.00,,,0.35,,2013-11-07 23:43:00,
2013-11-07 18:53:00,45.0,33.0,30.23,NW,309,5.0,8.0,62,0.00,,,0.35,,2013-11-07 23:53:00,
2013-11-07 19:22:00,44.0,33.0,30.24,NW,307,4.0,7.0,64,0.00,,,0.35,,2013-11-08 00:22:00,
2013-11-07 19:42:00,43.0,32.0,30.24,NW,313,5.0,10.0,64,0.00,,,0.35,,2013-11-08 00:42:00,
2013-11-07 19:52:00,43.0,31.0,30.24,WNW,302,6.0,9.0,63,0.00,,,0.35,,2013-11-08 00:52:00,
2013-11-07 20:22:00,43.0,32.0,30.25,NW,314,6.0,8.0,65,0.00,,,0.35,,2013-11-08 01:22:00,
2013-11-07 20:52:00,42.0,31.0,30.26,WNW,302,4.0,7.0,66,0.00,,,0.35,,2013-11-08 01:52:00,
2013-11-07 21:22:00,41.0,31.0,30.26,NW,304,4.0,7.0,67,0.00,,,0.35,,2013-11-08 02:22:00,
2013-11-07 21:42:00,41.0,31.0,30.24,NW,314,6.0,9.0,67,0.00,,,0.35,,2013-11-08 02:42:00,
2013-11-07 21:52:00,40.0,30.0,30.24,NW,306,5.0,10.0,67,0.00,,,0.35,,2013-11-08 02:52:00,
2013-11-07 22:22:00,40.0,30.0,30.25,NW,311,6.0,11.0,67,0.00,,,0.35,,2013-11-08 03:22:00,
2013-11-07 22:44:00,40.0,30.0,30.25,NW,306,6.0,10.0,66,0.00,,,0.35,,2013-11-08 03:44:00,
2013-11-07 22:55:00,40.0,30.0,30.25,NW,313,8.0,10.0,67,0.00,,,0.35,,2013-11-08 03:55:00,
2013-11-07 23:24:00,40.0,30.0,30.25,NW,306,6.0,11.0,66,0.00,,,0.35,,2013-11-08 04:24:00,
2013-11-07 23:44:00,40.0,30.0,30.26,NW,317,6.0,12.0,66,0.00,,,0.35,,2013-11-08 04:44:00,
2013-11-07 23:54:00,39.0,28.0,30.26,NW,312,5.0,11.0,65,0.00,,,0.35,,2013-11-08 04:54:00,